Main page
METAR-TAF:

METAR-TAF

Airports :

Kaolack Airport

Kaolack, Senegal

latitude: 14-08N, longitude: 016-04W, elevation: 6 m

Current weather observation

The report was made 2 hours and 14 minutes ago, at 23:00 UTC
Wind 6 kt from the West
Temperature 29°C
Humidity 89%
Pressure 1014 hPa
Visibility 10 km or more
Few clouds at a height of 1300 ft
Scattered clouds at a height of 23000 ft

METAR: GOOK 022300Z 28006KT 9999 FEW013 SCT230 29/27 Q1014

Time: 01:14 (01:14 UTC)


TAF: missing

Weather observations and forecasts of more than 4000 airports (METAR and TAF reports).

The available stations are represented by yellow and red dots on the map.

Hover mouse over dot to see the name of the station.

Then click to see weather observations and forecasts.

To change the map : click on the green buttons with a black cross to zoom in, on the green button with a dash to zoom out, or on the green arrows for adjacent maps.


METAR-TAF: